Time;durP1;ratioP1;P1;durP2;ratioP2;P2;SDS_P1;SDS_P2;PMS_P1;PMS_P2;Temp;Humidity;BMP_temperature;BMP_pressure;BME280_temperature;BME280_humidity;BME280_pressure;Samples;Min_cycle;Max_cycle;Signal;HPM_P1;HPM_P2
2022/06/06 00:00:23;;;;;;;2.67;1.80;;;22.10;76.40;;;;;;5068882;28;20716;-74
2022/06/06 00:02:49;;;;;;;4.38;1.65;;;22.00;76.40;;;;;;5070967;28;20632;-74
2022/06/06 00:05:16;;;;;;;1.67;1.60;;;22.00;75.80;;;;;;5069291;28;20217;-74
2022/06/06 00:07:42;;;;;;;2.30;1.60;;;22.00;76.70;;;;;;5074600;28;20174;-74
2022/06/06 00:10:09;;;;;;;1.35;1.35;;;22.00;75.60;;;;;;5073287;28;20178;-74
2022/06/06 00:12:36;;;;;;;1.73;1.63;;;22.00;76.90;;;;;;5073840;28;20183;-74
2022/06/06 00:15:02;;;;;;;1.35;1.25;;;22.10;76.70;;;;;;5076208;28;20205;-73
2022/06/06 00:17:28;;;;;;;1.40;1.40;;;22.10;75.70;;;;;;5069967;28;20758;-74
2022/06/06 00:19:54;;;;;;;1.77;1.67;;;22.10;76.30;;;;;;5066579;28;20193;-74
2022/06/06 00:22:20;;;;;;;2.25;1.33;;;22.10;76.20;;;;;;5068749;28;20199;-74
2022/06/06 00:24:46;;;;;;;4.45;1.55;;;22.10;76.20;;;;;;5071884;28;20618;-73
2022/06/06 00:27:11;;;;;;;4.30;1.77;;;22.10;76.50;;;;;;5071213;28;20185;-72
2022/06/06 00:29:37;;;;;;;1.60;1.60;;;22.10;76.40;;;;;;5065275;28;20249;-73
2022/06/06 00:34:53;;;;;;;1.63;1.63;;;22.10;77.70;;;;;;5070557;28;20216;-74
2022/06/06 00:37:29;;;;;;;2.35;1.90;;;22.00;76.90;;;;;;5071321;28;20194;-73
2022/06/06 00:39:56;;;;;;;4.53;1.40;;;22.00;76.30;;;;;;5074142;28;20170;-74
2022/06/06 00:42:27;;;;;;;1.80;1.75;;;21.90;76.10;;;;;;5073773;28;20213;-73
2022/06/06 00:45:14;;;;;;;1.45;1.42;;;21.90;77.20;;;;;;5074279;28;20642;-73
2022/06/06 00:47:41;;;;;;;1.95;1.80;;;21.90;76.70;;;;;;5068436;28;20190;-74
2022/06/06 00:50:14;;;;;;;1.63;1.52;;;21.80;77.00;;;;;;5075850;28;20267;-74
2022/06/06 00:52:41;;;;;;;2.20;2.15;;;21.80;76.40;;;;;;5066299;28;20187;-73
2022/06/06 00:55:14;;;;;;;2.25;1.55;;;21.80;77.00;;;;;;5067561;28;20186;-73
2022/06/06 00:57:46;;;;;;;1.88;1.65;;;21.80;75.80;;;;;;5072490;28;20305;-72
2022/06/06 01:00:16;;;;;;;1.42;1.33;;;21.80;76.60;;;;;;5071408;28;20298;-73
2022/06/06 01:02:49;;;;;;;1.65;1.65;;;21.80;76.00;;;;;;5069617;28;20228;-73
2022/06/06 01:05:16;;;;;;;1.60;1.50;;;21.80;77.10;;;;;;5071613;28;20190;-73
2022/06/06 01:07:41;;;;;;;1.67;1.58;;;21.90;77.60;;;;;;5057762;28;20746;-73
2022/06/06 01:10:08;;;;;;;1.55;1.55;;;21.80;77.20;;;;;;5072260;28;20240;-73
2022/06/06 01:12:35;;;;;;;2.47;1.67;;;21.80;76.60;;;;;;5075741;28;20202;-73
2022/06/06 01:15:07;;;;;;;1.48;1.48;;;21.80;78.50;;;;;;5070768;28;20289;-73
2022/06/06 01:18:07;;;;;;;2.50;1.98;;;21.80;77.50;;;;;;5070364;28;20190;-73
2022/06/06 01:21:14;;;;;;;1.90;1.67;;;21.80;76.90;;;;;;5068190;28;20183;-73
2022/06/06 01:24:17;;;;;;;5.68;2.25;;;21.80;77.30;;;;;;5046234;28;20300;-73
2022/06/06 01:26:42;;;;;;;1.63;1.63;;;21.80;76.50;;;;;;5043182;28;20211;-73
2022/06/06 01:29:34;;;;;;;1.55;1.55;;;21.80;78.50;;;;;;5048286;28;20211;-73
2022/06/06 01:32:10;;;;;;;1.85;1.85;;;21.80;79.10;;;;;;5024647;28;20199;-73
2022/06/06 01:34:40;;;;;;;1.50;1.50;;;21.70;78.60;;;;;;5046071;28;20191;-74
2022/06/06 01:37:22;;;;;;;2.03;1.73;;;21.60;77.70;;;;;;5046650;28;20254;-74
2022/06/06 01:39:48;;;;;;;2.10;2.00;;;21.60;77.80;;;;;;5050908;28;20271;-73
2022/06/06 01:42:36;;;;;;;2.10;2.00;;;21.40;83.80;;;;;;5045262;28;21073;-73
2022/06/06 01:45:08;;;;;;;2.63;2.53;;;21.20;85.90;;;;;;5049707;28;20194;-73
2022/06/06 01:47:44;;;;;;;3.60;2.17;;;21.00;87.00;;;;;;5046081;28;20685;-73
2022/06/06 01:50:12;;;;;;;7.30;3.58;;;21.00;87.00;;;;;;5048320;28;20514;-77
2022/06/06 01:52:52;;;;;;;5.63;2.60;;;20.90;88.60;;;;;;5046182;28;20212;-75
2022/06/06 01:55:18;;;;;;;4.80;2.60;;;20.70;87.90;;;;;;5052508;28;20191;-77
2022/06/06 01:57:45;;;;;;;4.10;3.10;;;20.40;91.20;;;;;;5042893;28;20186;-75
2022/06/06 02:00:12;;;;;;;1.75;1.73;;;20.00;90.70;;;;;;5071217;28;20223;-74
2022/06/06 02:02:40;;;;;;;2.15;1.85;;;20.00;91.50;;;;;;5071088;28;20635;-75
2022/06/06 02:05:06;;;;;;;2.10;1.85;;;19.60;94.20;;;;;;5064741;28;20183;-74
2022/06/06 02:07:31;;;;;;;1.38;1.38;;;19.60;93.40;;;;;;5072849;28;20249;-76
2022/06/06 02:09:57;;;;;;;1.45;1.38;;;19.50;94.60;;;;;;5073379;28;20408;-75
2022/06/06 02:12:23;;;;;;;1.02;1.02;;;19.30;94.20;;;;;;5073214;28;20211;-74
2022/06/06 02:14:48;;;;;;;2.28;0.85;;;19.20;94.90;;;;;;5075073;28;20198;-74
2022/06/06 02:17:14;;;;;;;5.53;1.35;;;19.10;94.60;;;;;;5072112;28;20186;-74
2022/06/06 02:19:40;;;;;;;0.85;0.82;;;19.00;95.20;;;;;;5073798;28;20178;-74
2022/06/06 02:22:06;;;;;;;3.35;1.15;;;19.00;95.70;;;;;;5074866;28;20183;-77
2022/06/06 02:24:32;;;;;;;1.00;0.80;;;19.00;96.50;;;;;;5072075;28;20210;-74
2022/06/06 02:26:58;;;;;;;2.58;1.15;;;19.00;96.20;;;;;;5070282;28;20206;-76
2022/06/06 02:29:23;;;;;;;3.05;1.52;;;19.00;95.60;;;;;;5074277;28;20293;-75
2022/06/06 02:31:49;;;;;;;2.38;1.13;;;19.00;95.30;;;;;;5069049;28;20183;-75
2022/06/06 02:34:15;;;;;;;2.67;1.00;;;19.20;94.60;;;;;;5075747;28;20229;-76
2022/06/06 02:36:41;;;;;;;4.22;1.23;;;19.20;94.30;;;;;;5073575;28;20561;-75
2022/06/06 02:39:06;;;;;;;1.33;1.33;;;19.30;94.10;;;;;;5077256;28;20265;-74
2022/06/06 02:41:32;;;;;;;1.52;1.52;;;19.30;93.30;;;;;;5075896;28;20513;-74
2022/06/06 02:43:58;;;;;;;6.45;1.52;;;19.30;93.00;;;;;;5074977;28;20186;-77
2022/06/06 02:46:24;;;;;;;4.38;1.60;;;19.40;92.30;;;;;;5073414;28;20179;-74
2022/06/06 02:48:50;;;;;;;2.83;1.40;;;19.30;92.00;;;;;;5070589;28;20199;-75
2022/06/06 02:51:15;;;;;;;2.50;1.92;;;19.30;90.60;;;;;;5069518;28;20236;-76
2022/06/06 02:53:41;;;;;;;2.20;2.03;;;19.40;93.20;;;;;;5076346;28;20180;-76
2022/06/06 02:56:07;;;;;;;6.63;1.95;;;19.40;92.40;;;;;;5073043;28;21011;-76
2022/06/06 02:58:32;;;;;;;1.90;1.75;;;19.40;90.60;;;;;;5070650;28;20189;-76
2022/06/06 03:01:02;;;;;;;2.45;1.98;;;19.40;92.30;;;;;;5061861;28;20258;-76
2022/06/06 03:03:29;;;;;;;4.00;1.52;;;19.40;90.20;;;;;;5065915;28;20209;-76
2022/06/06 03:06:17;;;;;;;1.67;1.55;;;19.40;93.60;;;;;;5072433;28;20183;-76
2022/06/06 03:09:13;;;;;;;1.70;1.60;;;19.40;90.70;;;;;;5025848;28;20715;-76
2022/06/06 03:12:25;;;;;;;1.35;1.25;;;19.40;89.80;;;;;;5034392;28;20187;-76
2022/06/06 03:15:18;;;;;;;1.27;1.27;;;19.40;89.20;;;;;;4944690;28;20205;-75
2022/06/06 03:21:18;;;;;;;1.60;1.50;;;19.40;89.80;;;;;;4944730;28;20238;-76
2022/06/06 03:23:57;;;;;;;2.17;1.67;;;19.50;92.30;;;;;;4944829;28;20207;-76
2022/06/06 03:26:29;;;;;;;2.70;1.80;;;19.50;91.00;;;;;;4945177;28;20272;-76
2022/06/06 03:29:03;;;;;;;3.70;1.73;;;19.50;92.30;;;;;;4944483;29;20225;-76
2022/06/06 03:31:46;;;;;;;3.08;1.67;;;19.50;93.50;;;;;;4945477;28;20212;-76
2022/06/06 03:34:27;;;;;;;5.47;1.58;;;19.60;93.90;;;;;;4944881;29;20201;-76
2022/06/06 03:36:58;;;;;;;1.58;1.48;;;19.60;93.90;;;;;;4944962;29;20195;-76
2022/06/06 03:39:34;;;;;;;2.22;2.13;;;19.60;94.00;;;;;;4945315;29;20207;-76
2022/06/06 03:42:14;;;;;;;1.52;1.52;;;19.60;95.00;;;;;;4945310;29;20194;-75
2022/06/06 03:44:43;;;;;;;3.67;2.08;;;19.60;95.20;;;;;;4944036;29;20283;-76
2022/06/06 03:47:45;;;;;;;2.78;1.70;;;19.50;95.30;;;;;;4953241;28;20187;-75
2022/06/06 03:50:20;;;;;;;4.18;2.20;;;19.40;94.80;;;;;;4952682;28;20245;-76
2022/06/06 03:52:56;;;;;;;2.15;2.00;;;19.30;95.40;;;;;;5066445;28;20197;-75
2022/06/06 03:55:46;;;;;;;2.22;2.03;;;19.30;95.10;;;;;;5072890;28;20653;-75
2022/06/06 03:58:17;;;;;;;5.43;2.35;;;19.30;94.90;;;;;;5076589;28;20257;-75
2022/06/06 04:00:45;;;;;;;1.83;1.58;;;19.20;96.10;;;;;;5073691;28;20179;-75
2022/06/06 04:03:13;;;;;;;2.25;2.05;;;19.10;95.30;;;;;;5072819;28;20527;-75
2022/06/06 04:05:39;;;;;;;1.95;1.85;;;19.10;96.20;;;;;;5072928;28;20549;-75
2022/06/06 04:08:08;;;;;;;1.95;1.85;;;19.10;96.20;;;;;;5077683;28;20194;-74
2022/06/06 04:10:59;;;;;;;2.17;1.95;;;19.10;96.70;;;;;;5097159;28;20190;-76
2022/06/06 04:13:32;;;;;;;2.30;2.20;;;19.00;96.90;;;;;;5072400;28;20806;-75
2022/06/06 04:16:03;;;;;;;3.08;2.88;;;19.00;96.20;;;;;;5073041;28;20277;-75
2022/06/06 04:18:43;;;;;;;2.42;2.28;;;19.00;96.00;;;;;;5072324;28;20193;-74
2022/06/06 04:21:23;;;;;;;1.80;1.80;;;19.00;94.30;;;;;;5074388;28;21026;-75
2022/06/06 04:24:00;;;;;;;2.38;2.20;;;19.00;93.70;;;;;;5074146;28;20190;-74
2022/06/06 04:26:45;;;;;;;1.80;1.73;;;19.00;92.90;;;;;;5072484;28;20212;-74
2022/06/06 04:29:20;;;;;;;1.83;1.73;;;19.10;94.10;;;;;;5071970;28;20736;-76
2022/06/06 04:32:03;;;;;;;1.80;1.77;;;19.20;94.10;;;;;;5070410;28;20358;-74
2022/06/06 04:34:53;;;;;;;1.55;1.48;;;19.20;94.00;;;;;;5061003;28;20189;-74
2022/06/06 04:37:34;;;;;;;2.22;2.13;;;19.30;95.20;;;;;;5074739;28;20187;-75
2022/06/06 04:40:20;;;;;;;1.88;1.85;;;19.30;94.30;;;;;;5069915;28;20266;-75
2022/06/06 04:43:08;;;;;;;2.08;1.98;;;19.30;93.10;;;;;;5069384;28;20248;-75
2022/06/06 04:45:44;;;;;;;2.33;2.00;;;19.40;92.70;;;;;;5071252;28;20206;-75
2022/06/06 04:48:12;;;;;;;1.80;1.70;;;19.40;93.20;;;;;;5070031;28;20782;-75
2022/06/06 04:50:43;;;;;;;1.65;1.65;;;19.50;92.60;;;;;;5065596;28;20748;-75
2022/06/06 04:53:16;;;;;;;2.00;1.90;;;19.60;93.00;;;;;;5072766;28;20179;-75
2022/06/06 04:55:44;;;;;;;1.55;1.55;;;19.60;91.80;;;;;;5072337;28;20676;-76
2022/06/06 04:58:11;;;;;;;2.17;1.88;;;19.70;91.90;;;;;;5070065;28;20623;-75
2022/06/06 05:00:39;;;;;;;2.47;2.28;;;19.80;93.40;;;;;;5068079;28;20187;-75
2022/06/06 05:03:05;;;;;;;2.70;2.30;;;19.90;94.60;;;;;;5064970;28;20588;-75
2022/06/06 05:05:46;;;;;;;2.53;2.40;;;20.00;94.50;;;;;;5069872;28;20186;-76
2022/06/06 05:08:27;;;;;;;5.20;2.05;;;20.00;93.80;;;;;;5067224;28;20218;-76
2022/06/06 05:11:11;;;;;;;3.47;2.13;;;20.10;93.10;;;;;;5068638;28;20217;-75
2022/06/06 05:14:00;;;;;;;3.40;2.28;;;20.00;93.30;;;;;;5068439;28;20179;-76
2022/06/06 05:16:37;;;;;;;2.50;2.40;;;19.90;93.90;;;;;;5069623;28;20199;-75
2022/06/06 05:19:20;;;;;;;2.85;2.25;;;19.90;94.60;;;;;;5064300;28;20970;-75
2022/06/06 05:22:16;;;;;;;2.08;2.08;;;19.90;95.10;;;;;;5070856;28;20185;-76
2022/06/06 05:25:03;;;;;;;4.47;2.92;;;19.80;93.70;;;;;;5067837;28;20279;-75
2022/06/06 05:27:40;;;;;;;5.43;2.75;;;19.70;95.40;;;;;;5076712;28;20192;-75
2022/06/06 05:30:06;;;;;;;3.38;2.75;;;19.70;94.90;;;;;;5084033;28;20302;-75
2022/06/06 05:32:34;;;;;;;4.18;3.67;;;19.70;95.80;;;;;;5077201;28;20262;-75
2022/06/06 05:35:17;;;;;;;3.85;3.30;;;19.80;95.80;;;;;;5071939;28;20183;-76
2022/06/06 05:37:52;;;;;;;3.40;3.22;;;19.80;94.20;;;;;;5071960;28;20181;-75
2022/06/06 05:40:38;;;;;;;3.58;3.30;;;19.90;94.80;;;;;;5069388;28;20305;-76
2022/06/06 05:43:25;;;;;;;4.28;3.13;;;19.90;94.40;;;;;;5071963;28;20234;-74
2022/06/06 05:45:53;;;;;;;2.78;2.58;;;20.00;93.50;;;;;;5065061;28;20190;-75
2022/06/06 05:48:46;;;;;;;7.90;3.20;;;20.10;94.40;;;;;;5070386;28;20293;-75
2022/06/06 05:51:33;;;;;;;2.78;2.67;;;20.10;93.10;;;;;;5072364;28;20207;-75
2022/06/06 05:54:14;;;;;;;4.68;3.30;;;20.20;94.10;;;;;;5069401;28;20855;-74
2022/06/06 05:56:52;;;;;;;6.47;3.10;;;20.30;93.90;;;;;;5069339;28;20187;-74
2022/06/06 06:00:08;;;;;;;3.58;3.20;;;20.50;94.00;;;;;;5071989;28;20236;-74
2022/06/06 06:02:56;;;;;;;3.90;3.17;;;20.60;93.80;;;;;;4984584;28;20192;-74
2022/06/06 06:05:21;;;;;;;3.00;2.80;;;20.80;94.50;;;;;;4996152;28;20212;-75
2022/06/06 06:07:59;;;;;;;2.50;2.28;;;20.90;93.50;;;;;;4999255;28;20750;-73
2022/06/06 06:10:36;;;;;;;3.15;2.47;;;20.90;92.60;;;;;;5006581;28;20733;-74
2022/06/06 06:13:07;;;;;;;3.08;2.75;;;21.00;92.00;;;;;;5005599;28;20472;-75
2022/06/06 06:15:37;;;;;;;4.80;3.00;;;21.00;91.90;;;;;;5006488;28;20197;-73
2022/06/06 06:18:27;;;;;;;3.92;2.83;;;21.00;92.10;;;;;;5006107;28;20639;-73
2022/06/06 06:21:08;;;;;;;4.95;2.42;;;21.10;92.30;;;;;;5004536;28;20188;-74
2022/06/06 06:23:37;;;;;;;2.83;2.63;;;21.20;92.60;;;;;;5006072;28;20684;-74
2022/06/06 06:26:05;;;;;;;3.38;3.13;;;21.40;92.20;;;;;;5006540;28;20864;-73
2022/06/06 06:28:36;;;;;;;3.40;3.13;;;21.40;91.60;;;;;;5006281;28;20216;-74
2022/06/06 06:31:23;;;;;;;2.53;2.40;;;21.50;91.10;;;;;;5002198;28;20582;-74
2022/06/06 06:34:16;;;;;;;3.53;3.17;;;21.50;91.30;;;;;;5002565;28;20197;-74
2022/06/06 06:36:46;;;;;;;9.43;2.80;;;21.60;91.70;;;;;;5004072;28;20191;-75
2022/06/06 06:39:36;;;;;;;3.92;3.40;;;21.70;91.30;;;;;;5063183;28;20218;-74
2022/06/06 06:42:04;;;;;;;6.57;3.00;;;21.80;90.50;;;;;;5068793;28;20249;-74
2022/06/06 06:44:37;;;;;;;6.05;3.03;;;21.80;90.20;;;;;;5066612;28;20606;-74
2022/06/06 06:47:10;;;;;;;3.75;2.83;;;21.90;89.80;;;;;;5064211;28;20210;-74
2022/06/06 06:49:36;;;;;;;11.43;3.50;;;21.90;90.10;;;;;;5070332;28;20202;-75
2022/06/06 06:52:43;;;;;;;5.28;2.63;;;21.90;90.10;;;;;;5066867;28;20175;-74
2022/06/06 06:55:28;;;;;;;3.88;2.42;;;22.00;90.20;;;;;;5013195;28;20188;-75
2022/06/06 06:58:15;;;;;;;2.80;2.60;;;22.00;90.00;;;;;;5011219;28;20192;-74
2022/06/06 07:00:55;;;;;;;7.35;2.97;;;22.10;89.80;;;;;;5010717;28;20682;-74
2022/06/06 07:09:55;;;;;;;7.03;2.30;;;22.30;90.90;;;;;;5017657;28;20228;-75
2022/06/06 07:12:47;;;;;;;5.53;2.65;;;22.30;90.80;;;;;;5009562;28;20226;-75
2022/06/06 07:15:26;;;;;;;5.22;3.70;;;22.30;90.00;;;;;;5014709;28;20200;-75
2022/06/06 07:17:55;;;;;;;4.70;3.40;;;22.30;90.40;;;;;;5015427;28;20234;-75
2022/06/06 07:20:21;;;;;;;3.03;2.70;;;22.40;90.10;;;;;;5016406;28;20196;-74
2022/06/06 07:23:04;;;;;;;3.05;2.65;;;22.40;90.50;;;;;;5009285;28;20206;-76
2022/06/06 07:25:32;;;;;;;3.00;2.90;;;22.50;89.90;;;;;;5012560;28;20246;-75
2022/06/06 07:27:58;;;;;;;4.13;3.08;;;22.50;90.50;;;;;;5017246;28;20184;-76
2022/06/06 07:30:30;;;;;;;5.35;3.00;;;22.60;90.70;;;;;;5071935;28;20188;-76
2022/06/06 07:33:10;;;;;;;5.15;2.90;;;22.70;90.40;;;;;;5064846;28;20232;-76
2022/06/06 07:36:25;;;;;;;7.43;2.95;;;22.70;90.40;;;;;;5066285;28;20695;-77
2022/06/06 07:39:00;;;;;;;2.53;2.00;;;22.80;90.20;;;;;;4940075;28;20198;-77
2022/06/06 07:41:41;;;;;;;3.00;2.40;;;22.90;89.70;;;;;;4937778;28;20193;-75
2022/06/06 07:44:12;;;;;;;2.35;2.25;;;23.00;89.50;;;;;;4936386;28;20203;-76
2022/06/06 07:47:07;;;;;;;3.13;2.50;;;23.10;90.00;;;;;;4938803;28;20618;-75
2022/06/06 07:50:14;;;;;;;5.35;3.03;;;23.30;90.50;;;;;;4921767;29;20392;-75
2022/06/06 07:52:45;;;;;;;8.60;3.25;;;23.50;89.40;;;;;;4902083;29;20564;-75
2022/06/06 07:55:21;;;;;;;5.28;2.97;;;23.70;85.40;;;;;;4902193;29;20196;-76
2022/06/06 07:58:08;;;;;;;5.88;2.45;;;23.80;86.70;;;;;;4899751;29;20195;-76
2022/06/06 08:00:35;;;;;;;4.57;2.22;;;23.90;87.70;;;;;;4902553;29;20861;-75
2022/06/06 08:03:14;;;;;;;3.47;2.25;;;24.10;87.00;;;;;;4901272;29;20204;-77
2022/06/06 08:05:39;;;;;;;3.28;2.88;;;24.20;86.90;;;;;;4886025;29;20647;-76
2022/06/06 08:08:24;;;;;;;2.80;2.53;;;24.40;86.70;;;;;;4902134;29;20275;-76
2022/06/06 08:10:50;;;;;;;4.90;2.25;;;24.50;85.80;;;;;;4903451;29;20275;-76
2022/06/06 08:13:21;;;;;;;1.73;1.63;;;24.70;85.50;;;;;;4902961;29;21898;-77
2022/06/06 08:15:56;;;;;;;2.25;2.13;;;24.80;84.70;;;;;;4951650;28;21013;-76
2022/06/06 08:18:40;;;;;;;1.85;1.75;;;24.90;84.50;;;;;;4990684;28;20292;-76
2022/06/06 08:21:08;;;;;;;3.88;2.20;;;25.00;83.10;;;;;;4992220;28;20212;-76
2022/06/06 08:23:37;;;;;;;8.00;2.40;;;25.20;84.00;;;;;;4991212;28;20189;-77
2022/06/06 08:26:04;;;;;;;1.98;1.88;;;25.20;82.80;;;;;;5015213;28;20194;-76
2022/06/06 08:28:31;;;;;;;1.95;1.85;;;25.30;83.70;;;;;;5061841;28;20608;-77
2022/06/06 08:30:58;;;;;;;1.60;1.50;;;25.30;83.00;;;;;;5067537;28;20274;-76
2022/06/06 08:33:25;;;;;;;4.88;1.95;;;25.40;83.30;;;;;;5067385;28;20187;-76
2022/06/06 08:36:24;;;;;;;4.65;2.15;;;25.50;82.50;;;;;;5063444;28;20193;-76
2022/06/06 08:39:05;;;;;;;1.30;1.20;;;25.60;82.60;;;;;;5077733;28;20182;-76
2022/06/06 08:41:45;;;;;;;2.60;1.60;;;25.70;82.10;;;;;;5071957;28;20224;-77
2022/06/06 08:44:28;;;;;;;5.65;1.60;;;25.90;81.00;;;;;;5076314;28;20189;-76
2022/06/06 08:47:18;;;;;;;1.77;1.48;;;26.00;81.50;;;;;;5066914;28;20178;-76
2022/06/06 08:52:43;;;;;;;3.30;1.75;;;26.20;80.40;;;;;;5030027;28;20745;-77
2022/06/06 08:55:20;;;;;;;2.47;1.80;;;26.30;79.10;;;;;;5031742;28;20197;-76
2022/06/06 08:57:55;;;;;;;2.58;1.83;;;26.30;78.50;;;;;;5026087;28;20198;-78
2022/06/06 09:00:26;;;;;;;3.05;1.83;;;26.30;78.20;;;;;;5029621;28;20199;-77
2022/06/06 09:03:13;;;;;;;2.30;1.98;;;26.20;77.90;;;;;;5033460;28;20760;-77
2022/06/06 09:05:51;;;;;;;2.50;1.00;;;26.00;76.10;;;;;;5028774;28;20266;-77
2022/06/06 09:09:05;;;;;;;1.10;1.10;;;25.80;75.50;;;;;;5029258;28;20366;-77
2022/06/06 09:12:06;;;;;;;1.38;1.05;;;25.40;75.80;;;;;;5032851;28;20206;-77
2022/06/06 09:15:12;;;;;;;1.20;1.13;;;25.10;75.60;;;;;;5030430;28;20234;-76
2022/06/06 09:18:18;;;;;;;1.05;0.75;;;24.70;76.10;;;;;;5011731;28;20208;-76
2022/06/06 09:21:07;;;;;;;1.60;1.20;;;24.30;77.40;;;;;;4950536;28;20199;-76
2022/06/06 09:23:58;;;;;;;1.88;1.10;;;24.00;79.80;;;;;;4950376;28;20203;-76
2022/06/06 09:26:59;;;;;;;2.97;1.20;;;23.80;80.30;;;;;;4887311;29;20281;-77
2022/06/06 09:29:49;;;;;;;1.25;0.95;;;23.50;81.30;;;;;;4868507;29;20233;-77
2022/06/06 09:32:52;;;;;;;3.83;1.40;;;23.40;81.80;;;;;;4869900;29;20202;-77
2022/06/06 09:35:52;;;;;;;1.92;0.82;;;23.20;83.10;;;;;;4868839;29;20208;-77
2022/06/06 09:38:56;;;;;;;1.13;1.02;;;22.80;83.40;;;;;;4868396;29;20233;-76
2022/06/06 09:41:40;;;;;;;2.42;1.15;;;22.40;85.00;;;;;;4868081;29;20820;-77
2022/06/06 09:44:09;;;;;;;1.40;1.30;;;22.20;85.60;;;;;;4868374;29;20717;-76
2022/06/06 09:47:25;;;;;;;1.60;1.30;;;22.10;86.20;;;;;;4868317;29;20189;-77
2022/06/06 09:49:57;;;;;;;1.42;1.27;;;21.80;85.50;;;;;;4867924;29;20233;-78
2022/06/06 09:52:59;;;;;;;2.45;1.08;;;21.80;84.90;;;;;;4867224;29;20193;-77
2022/06/06 09:59:04;;;;;;;1.00;1.00;;;22.10;85.90;;;;;;4939883;29;20194;-78
2022/06/06 10:01:47;;;;;;;0.73;0.73;;;22.30;83.30;;;;;;4940808;29;20189;-79
2022/06/06 10:04:40;;;;;;;0.90;0.90;;;22.40;82.50;;;;;;4967700;28;20279;-78
2022/06/06 10:07:25;;;;;;;1.02;1.02;;;22.50;82.50;;;;;;5039416;28;20195;-79
2022/06/06 10:10:19;;;;;;;0.77;0.77;;;22.60;82.20;;;;;;5075007;28;20210;-77
2022/06/06 10:12:55;;;;;;;1.05;1.05;;;22.80;80.30;;;;;;5020349;28;20200;-78
2022/06/06 10:15:49;;;;;;;0.77;0.77;;;22.90;81.20;;;;;;5019876;28;20705;-77
2022/06/06 10:18:29;;;;;;;1.75;1.10;;;23.10;82.60;;;;;;4954017;28;20187;-78
2022/06/06 10:21:08;;;;;;;3.08;1.00;;;23.50;83.10;;;;;;4953214;28;20210;-78
2022/06/06 10:23:48;;;;;;;1.15;1.00;;;23.50;82.60;;;;;;4950336;28;20205;-78
2022/06/06 10:26:51;;;;;;;0.73;0.73;;;23.60;82.30;;;;;;4955827;28;20556;-78
2022/06/06 10:32:46;;;;;;;1.10;1.10;;;23.80;82.40;;;;;;4958733;28;20268;-78
2022/06/06 10:35:24;;;;;;;1.77;0.80;;;23.90;82.00;;;;;;4956714;28;20345;-78
2022/06/06 10:38:01;;;;;;;3.50;1.42;;;23.80;83.50;;;;;;4952960;28;20218;-79
2022/06/06 10:40:47;;;;;;;1.05;0.90;;;23.80;82.90;;;;;;4952100;28;20206;-79
2022/06/06 10:43:37;;;;;;;0.98;0.93;;;23.70;81.80;;;;;;4950985;28;20198;-79
2022/06/06 10:46:25;;;;;;;1.52;1.25;;;23.40;82.90;;;;;;4948247;28;20564;-79
2022/06/06 10:49:35;;;;;;;1.27;1.25;;;23.50;82.30;;;;;;4959780;28;21049;-79
2022/06/06 10:52:32;;;;;;;1.05;1.05;;;23.40;82.90;;;;;;4943286;28;20634;-79
2022/06/06 10:55:19;;;;;;;1.00;1.00;;;23.30;83.20;;;;;;4880885;29;20200;-79
2022/06/06 10:58:18;;;;;;;1.30;1.20;;;23.20;81.80;;;;;;4902636;29;20574;-78
2022/06/06 11:01:05;;;;;;;2.47;2.20;;;23.00;81.50;;;;;;4902649;29;20213;-78
2022/06/06 11:04:03;;;;;;;2.08;1.77;;;22.90;81.70;;;;;;4902849;29;20185;-79
2022/06/06 11:06:38;;;;;;;1.20;1.20;;;22.70;82.50;;;;;;4878409;29;20671;-80
2022/06/06 11:09:12;;;;;;;0.90;0.90;;;22.70;83.90;;;;;;4894569;29;20322;-80
2022/06/06 11:11:53;;;;;;;1.23;1.02;;;22.70;84.60;;;;;;4889889;29;20725;-80
2022/06/06 11:14:41;;;;;;;0.95;0.95;;;22.60;85.10;;;;;;4888884;29;20212;-79
2022/06/06 11:17:19;;;;;;;2.35;0.80;;;22.60;85.70;;;;;;4890400;29;20295;-79
2022/06/06 11:20:29;;;;;;;2.03;1.00;;;22.50;84.90;;;;;;4895972;29;20260;-77
2022/06/06 11:23:18;;;;;;;1.08;1.05;;;22.40;85.00;;;;;;4892625;29;20279;-79
2022/06/06 11:26:05;;;;;;;1.20;1.10;;;22.30;85.30;;;;;;4893363;29;20309;-75
2022/06/06 11:29:09;;;;;;;3.10;1.00;;;22.30;85.10;;;;;;4941029;28;20237;-75
2022/06/06 11:31:53;;;;;;;3.80;1.77;;;22.30;85.50;;;;;;4981786;28;20776;-76
2022/06/06 11:34:40;;;;;;;1.10;1.10;;;22.30;85.50;;;;;;5011033;28;20267;-75
2022/06/06 11:37:32;;;;;;;0.80;0.80;;;22.30;87.00;;;;;;5004028;28;20199;-75
2022/06/06 11:40:01;;;;;;;1.10;1.10;;;22.40;87.10;;;;;;5007196;28;20276;-77
2022/06/06 11:43:04;;;;;;;1.15;1.05;;;22.40;87.40;;;;;;5050340;28;20528;-77
2022/06/06 11:45:51;;;;;;;3.20;1.13;;;22.40;87.70;;;;;;5068762;28;20355;-75
2022/06/06 11:48:35;;;;;;;1.02;1.00;;;22.50;87.60;;;;;;5059837;28;20278;-75
2022/06/06 11:51:35;;;;;;;1.08;1.08;;;22.50;86.20;;;;;;5066482;28;20178;-75
2022/06/06 11:54:19;;;;;;;1.92;0.80;;;22.40;86.30;;;;;;5091163;28;20182;-74
2022/06/06 11:57:05;;;;;;;0.80;0.80;;;22.40;87.10;;;;;;5056355;28;20760;-74
2022/06/06 12:00:00;;;;;;;0.95;0.95;;;22.40;86.90;;;;;;5069067;28;20273;-74
2022/06/06 12:03:02;;;;;;;0.98;0.98;;;22.40;87.80;;;;;;5067460;28;20190;-74
2022/06/06 12:06:07;;;;;;;1.15;1.15;;;22.40;87.50;;;;;;5064993;28;20187;-74
2022/06/06 12:08:59;;;;;;;1.23;1.23;;;22.40;86.80;;;;;;5067757;28;20214;-74
2022/06/06 12:11:57;;;;;;;0.93;0.93;;;22.40;86.60;;;;;;5066547;28;20596;-76
2022/06/06 12:14:27;;;;;;;1.13;1.13;;;22.40;86.00;;;;;;5071716;28;20182;-73
2022/06/06 12:17:17;;;;;;;1.05;0.88;;;22.40;87.00;;;;;;5064828;28;20552;-75
2022/06/06 12:20:01;;;;;;;1.00;1.00;;;22.30;85.60;;;;;;5067762;28;20186;-75
2022/06/06 12:23:03;;;;;;;1.00;1.00;;;22.20;85.10;;;;;;5064795;28;20190;-75
2022/06/06 12:25:59;;;;;;;1.05;1.02;;;22.20;85.10;;;;;;5067527;28;20214;-75
2022/06/06 12:28:47;;;;;;;2.45;1.27;;;22.20;86.10;;;;;;5068923;28;20874;-75
2022/06/06 12:31:50;;;;;;;1.15;1.15;;;22.10;87.00;;;;;;5070480;28;20663;-75
2022/06/06 12:34:37;;;;;;;1.52;1.48;;;22.10;87.60;;;;;;5065075;28;20921;-75
2022/06/06 12:37:12;;;;;;;1.60;1.40;;;22.10;88.00;;;;;;5066315;28;20231;-75
2022/06/06 12:39:50;;;;;;;6.47;1.38;;;22.10;86.80;;;;;;5061714;28;20250;-74
2022/06/06 12:42:31;;;;;;;2.10;1.23;;;22.10;87.30;;;;;;5068845;28;20657;-74
2022/06/06 12:45:11;;;;;;;1.00;1.00;;;22.20;86.60;;;;;;5069880;28;20639;-74
2022/06/06 12:47:55;;;;;;;2.25;1.48;;;22.20;86.40;;;;;;5069651;28;20187;-75
2022/06/06 12:50:41;;;;;;;1.10;1.10;;;22.30;86.80;;;;;;5066506;28;20267;-73
2022/06/06 12:53:35;;;;;;;0.82;0.82;;;22.40;86.30;;;;;;5061430;28;20190;-74
2022/06/06 12:56:25;;;;;;;1.58;1.10;;;22.60;88.00;;;;;;5070890;28;20683;-74
2022/06/06 12:59:24;;;;;;;1.38;1.38;;;22.60;86.50;;;;;;5095282;28;20676;-74
2022/06/06 13:02:17;;;;;;;1.23;1.23;;;22.80;86.80;;;;;;5071350;28;20251;-75
2022/06/06 13:05:17;;;;;;;4.25;1.52;;;23.00;86.40;;;;;;5074487;28;20239;-74
2022/06/06 13:07:59;;;;;;;1.50;1.50;;;23.00;85.70;;;;;;5073707;28;20651;-75
2022/06/06 13:10:46;;;;;;;1.40;1.30;;;23.00;84.00;;;;;;5065300;28;20600;-75
2022/06/06 13:13:41;;;;;;;1.42;1.42;;;22.90;83.60;;;;;;5072836;28;20183;-74
2022/06/06 13:16:31;;;;;;;1.27;1.27;;;22.90;84.30;;;;;;5072424;28;20190;-74
2022/06/06 13:19:34;;;;;;;1.80;1.70;;;23.00;83.60;;;;;;5056420;28;20179;-74
2022/06/06 13:22:09;;;;;;;1.52;1.42;;;23.00;85.00;;;;;;5012760;28;20286;-74
2022/06/06 13:24:50;;;;;;;2.40;1.38;;;22.90;84.10;;;;;;5018458;28;20192;-75
2022/06/06 13:27:26;;;;;;;1.25;1.25;;;22.90;83.50;;;;;;5026029;28;20247;-75
2022/06/06 13:29:52;;;;;;;1.27;1.25;;;22.90;83.60;;;;;;5004710;28;20223;-75
2022/06/06 13:32:26;;;;;;;1.05;1.05;;;22.80;83.80;;;;;;5035237;28;20690;-74
2022/06/06 13:35:04;;;;;;;1.75;1.65;;;22.80;82.80;;;;;;5025652;28;20225;-74
2022/06/06 13:37:52;;;;;;;0.93;0.93;;;22.80;83.60;;;;;;5022986;28;20584;-74
2022/06/06 13:40:43;;;;;;;3.97;1.75;;;22.80;83.40;;;;;;5043452;28;20230;-74
2022/06/06 13:43:36;;;;;;;0.90;0.90;;;22.80;84.20;;;;;;5013617;28;20234;-75
2022/06/06 13:46:21;;;;;;;4.78;1.20;;;22.90;84.10;;;;;;5028128;28;20203;-74
2022/06/06 13:49:05;;;;;;;1.40;1.40;;;23.00;84.30;;;;;;5030666;28;20235;-74
2022/06/06 13:52:08;;;;;;;1.42;1.02;;;23.10;84.30;;;;;;5025379;28;20595;-74
2022/06/06 13:54:38;;;;;;;1.30;1.20;;;23.20;84.10;;;;;;5030984;28;20184;-74
2022/06/06 13:57:30;;;;;;;1.35;1.35;;;23.20;83.80;;;;;;5029972;28;20226;-74
2022/06/06 14:00:05;;;;;;;1.05;1.00;;;23.20;83.60;;;;;;5066184;28;20199;-74
2022/06/06 14:02:57;;;;;;;1.15;1.15;;;23.30;83.30;;;;;;5062155;28;20193;-75
2022/06/06 14:06:05;;;;;;;1.35;1.25;;;23.30;83.60;;;;;;5069625;28;20178;-74
2022/06/06 14:08:53;;;;;;;3.00;1.50;;;23.40;84.00;;;;;;5066205;28;20720;-74
2022/06/06 14:11:57;;;;;;;3.10;1.40;;;23.40;83.60;;;;;;5025373;28;20195;-74
2022/06/06 14:14:25;;;;;;;1.23;1.23;;;23.40;84.10;;;;;;5018757;28;20184;-75
2022/06/06 14:16:58;;;;;;;1.08;1.08;;;23.50;83.90;;;;;;5003432;28;20667;-75